createdAt,value
2023-04-18T04:01:40.780Z,56.18
2023-04-18T04:04:25.832Z,55.91
2023-04-18T04:07:10.578Z,55.91
2023-04-18T04:09:55.336Z,56.69
2023-04-18T04:12:40.146Z,58.04
2023-04-18T04:15:24.988Z,57.56
2023-04-18T04:18:09.883Z,57.68
2023-04-18T04:20:54.781Z,57.14
2023-04-18T04:23:39.661Z,57.19
2023-04-18T04:26:24.517Z,57.36
2023-04-18T04:29:09.387Z,56.87
2023-04-18T04:31:54.347Z,57.67
2023-04-18T04:34:39.081Z,58.86
2023-04-18T04:37:23.902Z,58.48
2023-04-18T04:40:08.732Z,57.72
2023-04-18T04:42:53.632Z,57.05
2023-04-18T04:45:38.512Z,57.27
2023-04-18T04:48:23.409Z,56.18
2023-04-18T04:51:08.368Z,56.39
2023-04-18T04:53:53.343Z,56.02
2023-04-18T04:56:38.151Z,55.38
2023-04-18T04:59:22.983Z,55.13
2023-04-18T05:02:07.788Z,56.57
2023-04-18T05:04:52.696Z,56.93
2023-04-18T05:07:37.590Z,55.83
2023-04-18T05:10:22.335Z,55.98
2023-04-18T05:13:07.276Z,56.01
2023-04-18T05:15:52.196Z,55.90
2023-04-18T05:18:37.257Z,56.58
2023-04-18T05:21:22.105Z,57.96
2023-04-18T05:24:06.973Z,55.94
2023-04-18T05:26:51.786Z,55.80
2023-04-18T05:29:36.776Z,55.58
2023-04-18T05:32:21.676Z,55.52
2023-04-18T05:35:06.462Z,54.04
2023-04-18T05:37:51.587Z,53.65
2023-04-18T05:40:36.345Z,53.05
2023-04-18T05:43:21.264Z,52.46
2023-04-18T05:46:06.041Z,52.03
2023-04-18T05:48:51.013Z,51.84
2023-04-18T05:51:35.990Z,51.86
2023-04-18T05:54:20.785Z,51.58
2023-04-18T05:57:05.595Z,51.03
2023-04-18T05:59:50.406Z,50.88
2023-04-18T06:02:35.481Z,50.44
2023-04-18T06:05:20.465Z,49.38
2023-04-18T06:08:05.185Z,49.04
2023-04-18T06:10:49.926Z,48.99
2023-04-18T06:13:34.702Z,48.97
2023-04-18T06:16:19.586Z,47.67
2023-04-18T06:19:04.330Z,48.24
2023-04-18T06:21:49.277Z,47.32
2023-04-18T06:24:34.183Z,46.41
2023-04-18T06:27:30.672Z,46.11
2023-04-18T06:30:16.705Z,45.85
2023-04-18T06:33:01.579Z,44.22
2023-04-18T06:35:46.447Z,42.91
2023-04-18T06:38:31.316Z,43.58
2023-04-18T06:41:16.108Z,42.07
2023-04-18T06:44:03.370Z,42.26
2023-04-18T06:46:49.169Z,43.53
2023-04-18T06:49:34.140Z,43.26
2023-04-18T06:52:19.043Z,42.45
2023-04-18T06:55:03.819Z,40.64
2023-04-18T06:57:48.740Z,42.47
2023-04-18T07:00:33.602Z,42.44
2023-04-18T07:03:18.788Z,44.40
2023-04-18T07:06:03.445Z,45.54
2023-04-18T07:08:48.372Z,45.11
2023-04-18T07:11:33.183Z,44.82
2023-04-18T07:14:17.947Z,43.96
2023-04-18T07:17:02.927Z,44.54
2023-04-18T07:19:47.648Z,44.44
2023-04-18T07:22:32.687Z,43.84
2023-04-18T07:25:17.550Z,44.56
2023-04-18T07:28:02.445Z,45.19
2023-04-18T07:30:47.445Z,44.45
2023-04-18T07:33:32.196Z,45.53
2023-04-18T07:36:17.002Z,46.22
2023-04-18T07:39:01.928Z,48.17
2023-04-18T07:41:46.721Z,47.04
2023-04-18T07:44:31.612Z,45.68
2023-04-18T07:47:16.496Z,45.28
2023-04-18T07:50:01.421Z,45.56
2023-04-18T07:52:46.234Z,44.55
2023-04-18T07:55:31.004Z,45.43
2023-04-18T07:58:16.041Z,44.59
2023-04-18T08:01:00.818Z,45.85
2023-04-18T08:03:45.845Z,45.29
2023-04-18T08:06:30.656Z,44.06
2023-04-18T08:09:15.789Z,45.44
2023-04-18T08:12:00.960Z,44.48
2023-04-18T08:14:45.797Z,45.45
2023-04-18T08:17:30.629Z,44.92
2023-04-18T08:20:15.499Z,44.79
2023-04-18T08:23:06.367Z,44.48
2023-04-18T08:25:52.524Z,43.26
2023-04-18T08:28:37.426Z,43.99
2023-04-18T08:31:22.341Z,43.17
2023-04-18T08:34:07.251Z,41.79
2023-04-18T08:36:52.237Z,41.73
2023-04-18T08:39:37.106Z,41.20
2023-04-18T08:42:21.947Z,42.15
2023-04-18T08:45:06.962Z,41.91
2023-04-18T08:47:51.700Z,43.22
2023-04-18T08:50:36.716Z,41.03
2023-04-18T08:53:21.582Z,41.89
2023-04-18T08:56:06.561Z,43.35
2023-04-18T08:58:51.527Z,41.83
2023-04-18T09:01:36.382Z,41.49
2023-04-18T09:04:21.313Z,40.62
2023-04-18T09:07:06.206Z,40.14
2023-04-18T09:09:51.189Z,42.59
2023-04-18T09:12:36.073Z,38.25
2023-04-18T09:15:21.023Z,38.10
2023-04-18T09:18:05.915Z,40.19
2023-04-18T09:20:51.000Z,39.02
2023-04-18T09:23:35.744Z,40.65
2023-04-18T09:26:20.671Z,41.12
2023-04-18T09:29:05.707Z,39.79
2023-04-18T09:31:50.530Z,39.05
2023-04-18T09:34:35.438Z,38.96
2023-04-18T09:37:20.293Z,37.27
2023-04-18T09:40:05.168Z,37.44
2023-04-18T09:42:49.988Z,39.00
2023-04-18T09:45:34.971Z,40.21
2023-04-18T09:48:19.819Z,40.46
2023-04-18T09:51:04.683Z,41.40
2023-04-18T09:53:49.576Z,41.46
2023-04-18T09:56:34.400Z,39.20
2023-04-18T09:59:21.132Z,41.91
2023-04-18T10:02:06.254Z,38.49
2023-04-18T10:04:51.146Z,39.69
2023-04-18T10:07:35.841Z,37.64
2023-04-18T10:10:20.767Z,36.38
2023-04-18T10:13:05.675Z,34.75
2023-04-18T10:15:53.716Z,35.20
2023-04-18T10:18:38.686Z,33.34
2023-04-18T10:21:23.329Z,34.62
2023-04-18T10:24:08.154Z,29.76
2023-04-18T10:26:53.070Z,30.46
2023-04-18T10:29:37.930Z,31.49
2023-04-18T10:32:23.038Z,28.99
2023-04-18T10:35:07.758Z,30.63
2023-04-18T10:37:52.657Z,29.04
2023-04-18T10:40:37.403Z,30.26
2023-04-18T10:43:22.413Z,32.26
2023-04-18T10:46:10.132Z,29.86
2023-04-18T10:49:02.209Z,30.29
2023-04-18T10:51:47.090Z,27.57
2023-04-18T10:54:32.157Z,28.51
2023-04-18T10:57:17.020Z,28.88
2023-04-18T11:00:02.128Z,28.49
2023-04-18T11:02:46.890Z,31.28
2023-04-18T11:05:31.680Z,30.25
2023-04-18T11:08:16.552Z,31.30
2023-04-18T11:11:01.421Z,31.04
2023-04-18T11:13:46.849Z,31.71
2023-04-18T11:16:31.669Z,30.54
2023-04-18T11:19:16.649Z,29.57
2023-04-18T11:22:01.431Z,30.54
2023-04-18T11:24:46.329Z,31.50
2023-04-18T11:27:31.169Z,29.80
2023-04-18T11:30:16.257Z,30.12
2023-04-18T11:33:01.164Z,33.62
2023-04-18T11:35:46.058Z,31.76
2023-04-18T11:38:30.999Z,28.91
2023-04-18T11:41:15.825Z,29.40
2023-04-18T11:44:00.698Z,30.25
2023-04-18T11:46:45.515Z,29.15
2023-04-18T11:49:30.409Z,30.87
2023-04-18T11:52:15.275Z,28.79
2023-04-18T11:55:00.207Z,30.19
2023-04-18T11:57:44.976Z,30.11
2023-04-18T12:00:29.929Z,34.16
2023-04-18T12:03:15.110Z,31.13
2023-04-18T12:05:59.978Z,30.12
2023-04-18T12:08:44.801Z,32.25
2023-04-18T12:11:29.683Z,32.04
2023-04-18T12:14:14.798Z,30.70
2023-04-18T12:16:59.370Z,30.39
2023-04-18T12:19:44.333Z,27.59
2023-04-18T12:22:29.166Z,30.50
2023-04-18T12:25:14.032Z,27.82
2023-04-18T12:27:59.088Z,29.56
2023-04-18T12:30:43.829Z,29.28
2023-04-18T12:33:28.817Z,27.80
2023-04-18T12:36:13.655Z,25.68
2023-04-18T12:38:58.512Z,26.07
2023-04-18T12:41:43.258Z,26.52
2023-04-18T12:44:28.198Z,28.02
2023-04-18T12:47:12.934Z,28.84
2023-04-18T12:49:57.893Z,26.09
2023-04-18T12:52:42.905Z,28.27
2023-04-18T12:55:27.710Z,23.43
2023-04-18T12:58:12.668Z,21.63
2023-04-18T13:00:57.287Z,22.33
2023-04-18T13:03:42.429Z,24.64
2023-04-18T13:06:26.969Z,24.15
2023-04-18T13:09:13.208Z,25.45
2023-04-18T13:11:58.276Z,24.41
2023-04-18T13:14:43.159Z,24.02
2023-04-18T13:17:28.023Z,24.60
2023-04-18T13:20:12.880Z,22.11
2023-04-18T13:22:57.808Z,22.62
2023-04-18T13:25:42.636Z,21.99
2023-04-18T13:28:27.506Z,22.92
2023-04-18T13:31:12.367Z,23.31
2023-04-18T13:33:57.255Z,25.74
2023-04-18T13:36:41.986Z,27.43
2023-04-18T13:39:27.298Z,26.76
2023-04-18T13:42:13.530Z,24.26
2023-04-18T13:45:00.062Z,22.56
2023-04-18T13:47:45.127Z,24.63
2023-04-18T13:50:29.961Z,27.03
2023-04-18T13:53:14.832Z,25.39
2023-04-18T13:55:59.767Z,22.43
2023-04-18T13:58:44.625Z,23.00
2023-04-18T14:01:29.597Z,23.44
2023-04-18T14:04:14.569Z,25.64
2023-04-18T14:06:59.338Z,24.25
2023-04-18T14:09:44.164Z,25.01
2023-04-18T14:12:28.989Z,26.80
2023-04-18T14:15:13.800Z,21.74
2023-04-18T14:17:58.624Z,25.44
2023-04-18T14:20:43.468Z,28.77
2023-04-18T14:23:28.346Z,26.80
2023-04-18T14:26:13.208Z,29.77
2023-04-18T14:28:57.987Z,24.89
2023-04-18T14:31:43.042Z,25.82
2023-04-18T14:34:27.827Z,25.69
2023-04-18T14:37:12.826Z,27.09
2023-04-18T14:39:57.855Z,25.36
2023-04-18T14:42:42.931Z,27.49
2023-04-18T14:45:27.889Z,27.77
2023-04-18T14:48:12.774Z,26.09
2023-04-18T14:50:57.642Z,23.76
2023-04-18T14:53:42.532Z,28.77
2023-04-18T14:56:27.444Z,27.93
2023-04-18T14:59:14.068Z,31.07
2023-04-18T15:02:00.782Z,25.51
2023-04-18T15:04:45.720Z,29.00
2023-04-18T15:07:30.569Z,29.05
2023-04-18T15:10:15.481Z,26.66
2023-04-18T15:13:00.326Z,24.67
2023-04-18T15:15:45.227Z,25.33
2023-04-18T15:18:30.187Z,26.70
2023-04-18T15:21:15.326Z,27.49
2023-04-18T15:24:00.114Z,28.13
2023-04-18T15:26:44.943Z,29.82
2023-04-18T15:29:29.867Z,28.38
2023-04-18T15:32:14.859Z,29.13
2023-04-18T15:34:59.619Z,30.44
2023-04-18T15:37:44.394Z,25.77
2023-04-18T15:40:29.538Z,30.57
2023-04-18T15:43:14.543Z,26.52
2023-04-18T15:45:59.411Z,26.83
2023-04-18T15:48:44.394Z,29.62
2023-04-18T15:51:29.137Z,32.61
2023-04-18T15:54:14.442Z,32.54
2023-04-18T15:56:59.480Z,31.85
2023-04-18T15:59:44.479Z,30.45
2023-04-18T16:02:29.418Z,29.25
2023-04-18T16:05:15.645Z,29.88
2023-04-18T16:08:00.463Z,31.90
2023-04-18T16:10:45.333Z,28.92
2023-04-18T16:13:30.397Z,31.29
2023-04-18T16:16:15.349Z,27.01
2023-04-18T16:19:00.216Z,32.41
2023-04-18T16:21:44.996Z,32.14
2023-04-18T16:24:29.890Z,27.71
2023-04-18T16:27:14.734Z,25.63
2023-04-18T16:29:59.747Z,28.75
2023-04-18T16:32:44.679Z,32.26
2023-04-18T16:35:29.425Z,33.41
2023-04-18T16:38:14.276Z,33.22
2023-04-18T16:40:59.038Z,33.63
2023-04-18T16:43:46.986Z,33.09
2023-04-18T16:46:31.859Z,35.37
2023-04-18T16:49:16.764Z,35.90
2023-04-18T16:52:01.662Z,32.67
2023-04-18T16:54:46.435Z,32.72
2023-04-18T16:57:31.394Z,31.28
2023-04-18T17:00:16.262Z,31.25
2023-04-18T17:03:01.198Z,31.34
2023-04-18T17:05:46.053Z,31.66
2023-04-18T17:08:31.001Z,32.26
2023-04-18T17:11:15.953Z,30.63
2023-04-18T17:14:00.712Z,31.71
2023-04-18T17:16:45.696Z,30.55
2023-04-18T17:19:30.607Z,31.19
2023-04-18T17:22:15.504Z,31.20
2023-04-18T17:25:00.347Z,30.06
2023-04-18T17:27:45.335Z,30.65
2023-04-18T17:30:30.275Z,29.99
2023-04-18T17:33:15.336Z,31.40
2023-04-18T17:36:00.196Z,30.16
2023-04-18T17:38:45.046Z,30.12
2023-04-18T17:41:29.947Z,29.95
2023-04-18T17:44:14.815Z,30.40
2023-04-18T17:46:59.907Z,29.78
2023-04-18T17:49:44.796Z,31.03
2023-04-18T17:52:29.851Z,30.84
2023-04-18T17:55:14.647Z,30.23
2023-04-18T17:57:59.568Z,29.87
2023-04-18T18:00:44.380Z,31.28
2023-04-18T18:03:29.579Z,30.48
2023-04-18T18:06:14.429Z,31.04
2023-04-18T18:08:59.293Z,33.63
2023-04-18T18:11:44.239Z,34.68
2023-04-18T18:14:29.030Z,36.18
2023-04-18T18:17:14.021Z,35.79
2023-04-18T18:19:58.833Z,36.52
2023-04-18T18:22:43.839Z,37.64
2023-04-18T18:25:28.731Z,37.62
2023-04-18T18:28:13.705Z,36.66
2023-04-18T18:30:58.616Z,35.82
2023-04-18T18:33:43.375Z,35.61
2023-04-18T18:36:28.281Z,36.69
2023-04-18T18:39:13.108Z,36.69
2023-04-18T18:41:57.929Z,37.23
2023-04-18T18:44:42.795Z,37.65
2023-04-18T18:47:27.628Z,38.05
2023-04-18T18:50:12.436Z,38.61
2023-04-18T18:52:57.329Z,38.96
2023-04-18T18:55:42.142Z,38.60
2023-04-18T18:58:26.909Z,38.74
2023-04-18T19:01:11.851Z,39.19
2023-04-18T19:03:56.864Z,41.01
2023-04-18T19:06:41.806Z,41.25
2023-04-18T19:09:26.721Z,41.74
2023-04-18T19:12:11.575Z,41.78
2023-04-18T19:14:56.394Z,41.51
2023-04-18T19:17:41.441Z,41.15
2023-04-18T19:20:28.742Z,41.30
2023-04-18T19:23:14.059Z,40.97
2023-04-18T19:25:58.964Z,42.20
2023-04-18T19:28:43.851Z,42.32
2023-04-18T19:31:28.990Z,42.98
2023-04-18T19:34:13.885Z,43.48
2023-04-18T19:36:58.742Z,43.90
2023-04-18T19:39:43.734Z,43.92
2023-04-18T19:42:28.477Z,43.56
2023-04-18T19:45:13.362Z,44.37
2023-04-18T19:47:58.349Z,44.23
2023-04-18T19:50:43.184Z,44.41
2023-04-18T19:53:27.952Z,44.60
2023-04-18T19:56:12.807Z,44.66
2023-04-18T19:58:57.631Z,44.32
2023-04-18T20:01:42.573Z,44.77
2023-04-18T20:04:27.537Z,45.40
2023-04-18T20:07:12.158Z,45.37
2023-04-18T20:09:57.269Z,46.44
2023-04-18T20:12:42.041Z,45.98
2023-04-18T20:15:30.472Z,46.01
2023-04-18T20:18:15.568Z,46.16
2023-04-18T20:21:00.288Z,46.51
2023-04-18T20:23:45.258Z,46.92
2023-04-18T20:26:29.986Z,46.67
2023-04-18T20:29:15.277Z,46.44
2023-04-18T20:32:00.340Z,45.90
2023-04-18T20:34:45.219Z,45.64
2023-04-18T20:37:30.027Z,45.45
2023-04-18T20:40:14.876Z,44.99
2023-04-18T20:42:59.806Z,45.98
2023-04-18T20:45:44.565Z,46.36
2023-04-18T20:48:29.501Z,46.76
2023-04-18T20:51:14.415Z,45.27
2023-04-18T20:53:59.406Z,46.08
2023-04-18T20:56:44.228Z,45.87
2023-04-18T20:59:29.254Z,45.96
